createdAt,value
2018-07-27T00:00:32.187Z,5.70
2018-07-27T00:01:32.184Z,12.40
2018-07-27T00:02:32.135Z,8.00
2018-07-27T00:03:32.134Z,8.70
2018-07-27T00:04:32.120Z,7.80
2018-07-27T00:05:32.108Z,5.00
2018-07-27T00:06:32.111Z,12.60
2018-07-27T00:07:32.112Z,4.90
2018-07-27T00:08:32.071Z,5.30
2018-07-27T00:09:32.058Z,6.50
2018-07-27T00:10:32.053Z,8.10
2018-07-27T00:11:32.066Z,5.20
2018-07-27T00:12:32.027Z,9.00
2018-07-27T00:13:32.046Z,9.20
2018-07-27T00:14:32.009Z,7.30
2018-07-27T00:15:31.995Z,7.00
2018-07-27T00:16:31.982Z,8.00
2018-07-27T00:17:31.999Z,11.90
2018-07-27T00:18:31.962Z,11.50
2018-07-27T00:19:31.965Z,8.50
2018-07-27T00:20:31.934Z,16.50
2018-07-27T00:21:31.928Z,9.50
2018-07-27T00:22:31.939Z,7.80
2018-07-27T00:23:31.904Z,13.00
2018-07-27T00:24:31.892Z,25.60
2018-07-27T00:25:31.899Z,8.90
2018-07-27T00:26:31.867Z,10.70
2018-07-27T00:27:31.863Z,22.30
2018-07-27T00:28:31.863Z,18.50
2018-07-27T00:29:31.838Z,9.30
2018-07-27T00:30:31.835Z,10.40
2018-07-27T00:31:31.859Z,6.00
2018-07-27T00:32:31.803Z,8.60
2018-07-27T00:33:31.809Z,8.90
2018-07-27T00:34:31.785Z,9.00
2018-07-27T00:35:31.770Z,14.60
2018-07-27T00:36:31.772Z,9.40
2018-07-27T00:37:31.771Z,7.20
2018-07-27T00:38:31.740Z,7.40
2018-07-27T00:39:31.739Z,11.30
2018-07-27T00:40:31.709Z,6.00
2018-07-27T00:41:31.709Z,5.10
2018-07-27T00:42:31.692Z,8.40
2018-07-27T00:43:31.705Z,6.10
2018-07-27T00:44:31.679Z,7.10
2018-07-27T00:45:31.656Z,10.20
2018-07-27T00:46:31.653Z,8.30
2018-07-27T00:47:31.643Z,10.50
2018-07-27T00:48:31.625Z,7.60
2018-07-27T00:49:31.668Z,9.80
2018-07-27T00:50:31.601Z,15.60
2018-07-27T00:51:31.588Z,7.30
2018-07-27T00:52:31.580Z,9.20
2018-07-27T00:53:31.571Z,7.80
2018-07-27T00:54:31.556Z,7.60
2018-07-27T00:55:31.598Z,9.00
2018-07-27T00:56:31.541Z,23.60
2018-07-27T00:57:31.524Z,28.40
2018-07-27T00:58:31.544Z,15.90
2018-07-27T00:59:31.500Z,11.30
2018-07-27T01:00:31.499Z,15.10
2018-07-27T01:01:31.547Z,11.00
2018-07-27T01:02:31.469Z,11.90
2018-07-27T01:03:31.455Z,5.80
2018-07-27T01:04:31.447Z,8.40
2018-07-27T01:05:31.433Z,13.10
2018-07-27T01:06:31.432Z,23.30
2018-07-27T01:07:31.436Z,19.60
2018-07-27T01:08:31.398Z,27.50
2018-07-27T01:09:31.390Z,6.90
2018-07-27T01:10:31.385Z,9.10
2018-07-27T01:11:31.390Z,8.80
2018-07-27T01:12:31.356Z,12.30
2018-07-27T01:13:31.365Z,27.10
2018-07-27T01:14:31.328Z,19.70
2018-07-27T01:15:31.319Z,13.10
2018-07-27T01:16:31.334Z,10.20
2018-07-27T01:17:31.299Z,9.50
2018-07-27T01:18:31.288Z,6.50
2018-07-27T01:19:31.296Z,8.50
2018-07-27T01:20:31.268Z,8.80
2018-07-27T01:21:31.265Z,9.30
2018-07-27T01:22:31.245Z,8.80
2018-07-27T01:23:31.224Z,8.00
2018-07-27T01:24:31.219Z,7.80
2018-07-27T01:25:31.233Z,9.70
2018-07-27T01:26:31.216Z,8.20
2018-07-27T01:27:31.185Z,7.10
2018-07-27T01:28:31.178Z,6.60
2018-07-27T01:29:31.167Z,7.00
2018-07-27T01:30:31.151Z,6.10
2018-07-27T01:31:31.160Z,6.10
2018-07-27T01:32:31.152Z,13.70
2018-07-27T01:33:31.116Z,10.50
2018-07-27T01:34:31.103Z,11.70
2018-07-27T01:35:31.095Z,10.40
2018-07-27T01:36:31.088Z,13.10
2018-07-27T01:37:31.094Z,13.70
2018-07-27T01:38:31.070Z,17.70
2018-07-27T01:39:31.049Z,13.50
2018-07-27T01:40:31.038Z,8.50
2018-07-27T01:41:31.029Z,9.30
2018-07-27T01:42:31.017Z,11.70
2018-07-27T01:43:31.048Z,7.50
2018-07-27T01:44:30.999Z,8.80
2018-07-27T01:45:30.984Z,9.80
2018-07-27T01:46:30.972Z,5.70
2018-07-27T01:47:30.961Z,8.00
2018-07-27T01:48:30.974Z,10.10
2018-07-27T01:49:30.953Z,6.90
2018-07-27T01:50:30.928Z,10.30
2018-07-27T01:51:30.913Z,13.70
2018-07-27T01:52:30.907Z,11.40
2018-07-27T01:53:30.892Z,9.40
2018-07-27T01:54:30.907Z,8.00
2018-07-27T01:55:30.897Z,9.00
2018-07-27T01:56:30.862Z,6.80
2018-07-27T01:57:30.850Z,6.80
2018-07-27T01:58:30.843Z,8.40
2018-07-27T01:59:30.825Z,7.00
2018-07-27T02:00:30.830Z,7.00
2018-07-27T02:01:30.829Z,9.20
2018-07-27T02:02:30.790Z,9.80
2018-07-27T02:03:30.781Z,12.60
2018-07-27T02:04:30.768Z,11.10
2018-07-27T02:05:30.770Z,10.50
2018-07-27T02:06:30.749Z,13.90
2018-07-27T02:07:30.758Z,16.70
2018-07-27T02:08:30.721Z,22.30
2018-07-27T02:09:30.719Z,13.90
2018-07-27T02:10:30.726Z,12.00
2018-07-27T02:11:30.687Z,13.00
2018-07-27T02:12:30.682Z,11.80
2018-07-27T02:13:30.686Z,16.00
2018-07-27T02:14:30.658Z,9.00
2018-07-27T02:15:30.650Z,9.20
2018-07-27T02:16:30.677Z,10.40
2018-07-27T02:17:30.624Z,9.60
2018-07-27T02:18:30.611Z,11.60
2018-07-27T02:19:30.626Z,15.70
2018-07-27T02:20:30.589Z,8.50
2018-07-27T02:21:30.577Z,10.40
2018-07-27T02:22:30.591Z,9.80
2018-07-27T02:23:30.602Z,8.50
2018-07-27T02:24:30.542Z,8.40
2018-07-27T02:25:30.550Z,9.50
2018-07-27T02:26:30.517Z,8.20
2018-07-27T02:27:30.513Z,7.50
2018-07-27T02:28:30.512Z,10.20
2018-07-27T02:29:30.494Z,12.20
2018-07-27T02:30:30.489Z,7.00
2018-07-27T02:31:30.492Z,9.80
2018-07-27T02:32:30.460Z,10.90
2018-07-27T02:33:30.469Z,7.00
2018-07-27T02:34:30.438Z,8.80
2018-07-27T02:35:30.428Z,8.00
2018-07-27T02:36:30.420Z,7.10
2018-07-27T02:37:30.429Z,8.90
2018-07-27T02:38:30.418Z,7.90
2018-07-27T02:39:30.374Z,9.60
2018-07-27T02:40:30.366Z,24.20
2018-07-27T02:41:30.356Z,14.70
2018-07-27T02:42:30.354Z,6.60
2018-07-27T02:43:30.348Z,7.00
2018-07-27T02:44:30.350Z,19.30
2018-07-27T02:45:30.315Z,9.00
2018-07-27T02:46:30.298Z,11.20
2018-07-27T02:47:30.285Z,6.80
2018-07-27T02:48:30.276Z,9.70
2018-07-27T02:49:30.285Z,25.90
2018-07-27T02:50:30.266Z,43.80
2018-07-27T02:51:30.343Z,68.60
2018-07-27T02:52:30.232Z,36.20
2018-07-27T02:53:30.219Z,54.80
2018-07-27T02:54:30.224Z,23.20
2018-07-27T02:55:30.233Z,10.60
2018-07-27T02:56:30.197Z,10.60
2018-07-27T02:57:30.174Z,9.40
2018-07-27T02:58:30.159Z,9.40
2018-07-27T02:59:30.153Z,26.30
2018-07-27T03:00:30.164Z,26.00
2018-07-27T03:01:30.154Z,11.70
2018-07-27T03:02:30.704Z,10.50
2018-07-27T03:03:30.114Z,8.70
2018-07-27T03:04:30.098Z,6.80
2018-07-27T03:05:30.108Z,10.80
2018-07-27T03:06:30.080Z,17.70
2018-07-27T03:07:30.081Z,20.70
2018-07-27T03:08:30.051Z,19.20
2018-07-27T03:09:30.046Z,12.70
2018-07-27T03:10:30.035Z,11.30
2018-07-27T03:11:30.056Z,27.00
2018-07-27T03:12:30.014Z,17.50
2018-07-27T03:13:30.027Z,8.90
2018-07-27T03:14:29.985Z,14.70
2018-07-27T03:15:29.982Z,23.10
2018-07-27T03:16:29.971Z,15.10
2018-07-27T03:17:29.964Z,14.60
2018-07-27T03:18:29.947Z,17.90
2018-07-27T03:19:30.702Z,10.70
2018-07-27T03:20:29.918Z,9.40
2018-07-27T03:21:29.905Z,32.60
2018-07-27T03:22:29.916Z,36.10
2018-07-27T03:23:29.883Z,33.50
2018-07-27T03:24:29.875Z,46.70
2018-07-27T03:25:29.882Z,65.00
2018-07-27T03:26:29.852Z,53.40
2018-07-27T03:27:29.852Z,46.60
2018-07-27T03:28:29.826Z,21.40
2018-07-27T03:29:29.815Z,21.20
2018-07-27T03:30:29.812Z,34.30
2018-07-27T03:31:29.818Z,23.50
2018-07-27T03:32:29.794Z,31.50
2018-07-27T03:33:29.775Z,18.40
2018-07-27T03:34:29.760Z,22.70
2018-07-27T03:35:29.747Z,10.30
2018-07-27T03:36:29.751Z,8.80
2018-07-27T03:37:29.745Z,8.50
2018-07-27T03:38:29.748Z,8.80
2018-07-27T03:39:29.703Z,14.90
2018-07-27T03:40:29.693Z,10.80
2018-07-27T03:41:29.683Z,22.90
2018-07-27T03:42:29.667Z,21.70
2018-07-27T03:43:29.686Z,22.90
2018-07-27T03:44:29.666Z,27.70
2018-07-27T03:45:29.639Z,25.10
2018-07-27T03:46:29.633Z,21.70
2018-07-27T03:47:29.621Z,20.30
2018-07-27T03:48:29.604Z,42.00
2018-07-27T03:49:29.678Z,32.10
2018-07-27T03:50:29.586Z,26.30
2018-07-27T03:51:29.576Z,15.80
2018-07-27T03:52:29.565Z,13.30
2018-07-27T03:53:29.544Z,16.90
2018-07-27T03:54:29.538Z,17.20
2018-07-27T03:55:29.598Z,10.50
2018-07-27T03:56:29.528Z,9.00
2018-07-27T03:57:29.509Z,9.00
2018-07-27T03:58:29.496Z,18.40
2018-07-27T03:59:29.477Z,22.30
2018-07-27T04:00:29.488Z,29.60
2018-07-27T04:01:29.472Z,36.70
2018-07-27T04:02:29.449Z,20.50
2018-07-27T04:03:29.431Z,30.50
2018-07-27T04:04:29.427Z,11.40
2018-07-27T04:05:29.438Z,7.90
2018-07-27T04:06:29.440Z,7.80
2018-07-27T04:07:29.422Z,11.70
2018-07-27T04:08:29.423Z,13.10
2018-07-27T04:09:29.371Z,14.40
2018-07-27T04:10:29.359Z,12.70
2018-07-27T04:11:29.343Z,10.70
2018-07-27T04:12:29.350Z,11.60
2018-07-27T04:13:29.342Z,13.00
2018-07-27T04:14:29.308Z,12.10
2018-07-27T04:15:29.300Z,10.20
2018-07-27T04:16:29.299Z,7.40
2018-07-27T04:17:29.308Z,41.00
2018-07-27T04:18:29.270Z,18.70
2018-07-27T04:19:29.273Z,22.10
2018-07-27T04:20:29.242Z,14.00
2018-07-27T04:21:29.235Z,16.30
2018-07-27T04:22:29.236Z,12.10
2018-07-27T04:23:29.244Z,16.00
2018-07-27T04:24:29.202Z,12.70
2018-07-27T04:25:29.208Z,43.70
2018-07-27T04:26:29.175Z,29.70
2018-07-27T04:27:29.162Z,49.90
2018-07-27T04:28:29.160Z,62.50
2018-07-27T04:29:29.156Z,45.20
2018-07-27T04:30:29.132Z,59.40
2018-07-27T04:31:29.141Z,77.10
2018-07-27T04:32:29.116Z,50.70
2018-07-27T04:33:29.099Z,33.80
2018-07-27T04:34:29.117Z,40.60
2018-07-27T04:35:29.078Z,38.70
2018-07-27T04:36:29.062Z,26.70
2018-07-27T04:37:29.070Z,21.30
2018-07-27T04:38:29.043Z,30.70
2018-07-27T04:39:29.029Z,47.30
2018-07-27T04:40:29.031Z,21.00
2018-07-27T04:41:29.005Z,13.80
2018-07-27T04:42:28.999Z,32.60
2018-07-27T04:43:29.003Z,18.00
2018-07-27T04:44:29.004Z,20.50
2018-07-27T04:45:28.965Z,12.90
2018-07-27T04:46:28.951Z,19.10
2018-07-27T04:47:28.936Z,28.40
2018-07-27T04:48:28.929Z,28.80
2018-07-27T04:49:29.020Z,18.50
2018-07-27T04:50:28.943Z,142.80
2018-07-27T04:51:28.902Z,87.60
2018-07-27T04:52:28.886Z,146.20
2018-07-27T04:53:28.873Z,70.70
2018-07-27T04:54:28.864Z,48.70
2018-07-27T04:55:28.863Z,29.10
2018-07-27T04:56:28.931Z,55.90
2018-07-27T04:57:28.830Z,49.90
2018-07-27T04:58:28.816Z,43.50
2018-07-27T04:59:28.810Z,49.90
2018-07-27T05:00:28.797Z,16.70
2018-07-27T05:01:28.821Z,24.40
2018-07-27T05:02:28.768Z,50.90
2018-07-27T05:03:28.765Z,30.70
2018-07-27T05:04:28.752Z,54.60
2018-07-27T05:05:28.743Z,33.40
2018-07-27T05:06:28.727Z,26.00
2018-07-27T05:07:28.756Z,16.40
2018-07-27T05:08:28.707Z,29.30
2018-07-27T05:09:28.703Z,25.40
2018-07-27T05:10:28.681Z,25.10
2018-07-27T05:11:28.672Z,19.20
2018-07-27T05:12:28.674Z,29.40
2018-07-27T05:13:28.665Z,27.10
2018-07-27T05:14:28.638Z,24.90
2018-07-27T05:15:28.629Z,22.90
2018-07-27T05:16:28.621Z,25.30
2018-07-27T05:17:28.625Z,14.80
2018-07-27T05:18:28.592Z,15.90
2018-07-27T05:19:28.606Z,27.00
2018-07-27T05:20:28.571Z,43.30
2018-07-27T05:21:28.562Z,42.60
2018-07-27T05:22:28.552Z,35.40
2018-07-27T05:23:28.553Z,44.60
2018-07-27T05:24:28.578Z,37.60
2018-07-27T05:25:28.527Z,39.70
2018-07-27T05:26:28.504Z,38.30
2018-07-27T05:27:28.492Z,36.00
2018-07-27T05:28:28.503Z,35.10
2018-07-27T05:29:28.470Z,26.70
2018-07-27T05:30:28.459Z,26.00
2018-07-27T05:31:28.469Z,48.60
2018-07-27T05:32:28.432Z,102.50
2018-07-27T05:33:28.425Z,77.00
2018-07-27T05:34:28.479Z,50.20
2018-07-27T05:35:28.405Z,90.80
2018-07-27T05:36:28.392Z,62.80
2018-07-27T05:37:28.398Z,39.70
2018-07-27T05:38:28.367Z,35.70
2018-07-27T05:39:28.384Z,32.40
2018-07-27T05:40:28.342Z,30.10
2018-07-27T05:41:28.336Z,17.10
2018-07-27T05:42:28.323Z,15.30
2018-07-27T05:43:28.333Z,46.00
2018-07-27T05:44:28.302Z,32.70
2018-07-27T05:45:28.301Z,43.10
2018-07-27T05:46:28.273Z,16.50
2018-07-27T05:47:28.266Z,29.30
2018-07-27T05:48:28.257Z,18.40
2018-07-27T05:49:28.267Z,36.70
2018-07-27T05:50:28.264Z,27.80
2018-07-27T05:51:28.218Z,13.90
2018-07-27T05:52:28.214Z,13.50
2018-07-27T05:53:28.200Z,16.50
2018-07-27T05:54:28.201Z,12.70
2018-07-27T05:55:28.199Z,12.90
2018-07-27T05:56:28.180Z,20.90
2018-07-27T05:57:28.163Z,39.80
2018-07-27T05:58:28.152Z,12.10
2018-07-27T05:59:28.194Z,56.60
2018-07-27T06:00:28.122Z,26.70
2018-07-27T06:01:28.152Z,39.70
2018-07-27T06:02:28.109Z,29.70
2018-07-27T06:03:28.091Z,12.20
2018-07-27T06:04:28.077Z,13.30
2018-07-27T06:05:28.115Z,29.10
2018-07-27T06:06:28.084Z,21.40
2018-07-27T06:07:28.060Z,9.80
2018-07-27T06:08:28.031Z,10.40
2018-07-27T06:09:28.021Z,18.40
2018-07-27T06:10:28.019Z,19.80
2018-07-27T06:11:27.999Z,16.30
2018-07-27T06:12:28.042Z,9.80
2018-07-27T06:13:27.977Z,25.50
2018-07-27T06:14:27.976Z,11.70
2018-07-27T06:15:27.965Z,9.50
2018-07-27T06:16:27.946Z,10.60
2018-07-27T06:17:27.942Z,16.40
2018-07-27T06:18:27.962Z,9.10
2018-07-27T06:19:27.909Z,17.70
2018-07-27T06:20:27.903Z,11.80
2018-07-27T06:21:27.891Z,12.70
2018-07-27T06:22:27.887Z,8.30
2018-07-27T06:23:27.893Z,9.80
2018-07-27T06:24:27.882Z,8.60
2018-07-27T06:25:27.849Z,10.30
2018-07-27T06:26:27.836Z,10.80
2018-07-27T06:27:27.829Z,9.50
2018-07-27T06:28:27.817Z,11.20
2018-07-27T06:29:27.816Z,10.00
2018-07-27T06:30:27.812Z,10.20
2018-07-27T06:31:27.776Z,10.00
2018-07-27T06:32:27.785Z,8.00
2018-07-27T06:33:27.759Z,8.80
2018-07-27T06:34:27.783Z,16.60
2018-07-27T06:35:27.735Z,11.20
2018-07-27T06:36:27.738Z,6.90
2018-07-27T06:37:27.721Z,15.90
2018-07-27T06:38:27.704Z,47.90
2018-07-27T06:39:27.687Z,30.00
2018-07-27T06:40:27.697Z,8.20
2018-07-27T06:41:27.669Z,7.80
2018-07-27T06:42:27.679Z,8.70
2018-07-27T06:43:27.648Z,9.80
2018-07-27T06:44:27.647Z,6.60
2018-07-27T06:45:27.648Z,11.50
2018-07-27T06:46:27.772Z,18.30
2018-07-27T06:47:27.610Z,15.90
2018-07-27T06:48:27.590Z,10.60
2018-07-27T06:49:27.605Z,9.70
2018-07-27T06:50:27.565Z,19.60
2018-07-27T06:51:27.575Z,14.50
2018-07-27T06:52:27.601Z,7.80
2018-07-27T06:53:27.537Z,10.20
2018-07-27T06:54:27.524Z,8.00
2018-07-27T06:55:27.508Z,8.80
2018-07-27T06:56:27.516Z,9.90
2018-07-27T06:57:27.529Z,15.70
2018-07-27T06:58:27.484Z,44.60
2018-07-27T06:59:34.257Z,17.90
2018-07-27T07:00:27.461Z,9.10
2018-07-27T07:01:27.464Z,13.00
2018-07-27T07:02:27.432Z,8.50
2018-07-27T07:03:27.502Z,8.20
2018-07-27T07:04:27.414Z,16.60
2018-07-27T07:05:27.420Z,18.60
2018-07-27T07:06:27.410Z,11.70
2018-07-27T07:07:27.391Z,7.20
2018-07-27T07:08:27.376Z,7.50
2018-07-27T07:09:27.383Z,13.70
2018-07-27T07:10:27.352Z,9.40
2018-07-27T07:11:27.377Z,9.60
2018-07-27T07:12:27.323Z,7.40
2018-07-27T07:13:27.320Z,6.10
2018-07-27T07:14:27.335Z,5.90
2018-07-27T07:15:27.311Z,12.60
2018-07-27T07:16:27.288Z,8.70
2018-07-27T07:17:27.318Z,7.70
2018-07-27T07:18:27.264Z,7.00
2018-07-27T07:19:27.252Z,6.90
2018-07-27T07:20:27.244Z,6.50
2018-07-27T07:21:27.272Z,5.70
2018-07-27T07:22:27.220Z,5.60
2018-07-27T07:23:27.243Z,6.30
2018-07-27T07:24:27.206Z,6.00
2018-07-27T07:25:27.321Z,6.10
2018-07-27T07:26:27.177Z,8.50
2018-07-27T07:27:27.180Z,5.90
2018-07-27T07:28:27.169Z,8.60
2018-07-27T07:29:27.140Z,7.50
2018-07-27T07:30:27.132Z,8.80
2018-07-27T07:31:27.119Z,7.40
2018-07-27T07:32:27.109Z,7.00
2018-07-27T07:33:27.146Z,6.00
2018-07-27T07:34:27.088Z,5.40
2018-07-27T07:35:27.079Z,5.20
2018-07-27T07:36:27.067Z,6.20
2018-07-27T07:37:27.063Z,7.00
2018-07-27T07:38:27.070Z,6.10
2018-07-27T07:39:27.068Z,14.90
2018-07-27T07:40:27.070Z,8.10
2018-07-27T07:41:27.021Z,12.20
2018-07-27T07:42:27.005Z,7.30
2018-07-27T07:43:27.003Z,5.30
2018-07-27T07:44:26.999Z,6.50
2018-07-27T07:45:26.970Z,9.90
2018-07-27T07:46:26.963Z,17.90
2018-07-27T07:47:26.950Z,5.80
2018-07-27T07:48:27.071Z,5.10
2018-07-27T07:49:27.036Z,4.70
2018-07-27T07:50:26.916Z,5.00
2018-07-27T07:51:26.910Z,7.10
2018-07-27T07:52:26.900Z,8.60
2018-07-27T07:53:26.887Z,7.30
2018-07-27T07:54:26.902Z,23.10
2018-07-27T07:55:26.882Z,5.70
2018-07-27T07:56:26.853Z,6.90
2018-07-27T07:57:26.851Z,9.40
2018-07-27T07:58:26.832Z,5.90
2018-07-27T07:59:26.835Z,6.50
2018-07-27T08:00:26.823Z,6.20
2018-07-27T08:01:26.843Z,6.50
2018-07-27T08:02:26.783Z,6.30
2018-07-27T08:03:26.777Z,8.10
2018-07-27T08:04:26.771Z,6.30
2018-07-27T08:05:26.839Z,8.20
2018-07-27T08:06:26.752Z,5.00
2018-07-27T08:07:27.744Z,8.00
2018-07-27T08:08:26.726Z,5.40
2018-07-27T08:09:26.712Z,5.90
2018-07-27T08:10:26.694Z,10.40
2018-07-27T08:11:26.734Z,7.20
2018-07-27T08:12:26.665Z,8.30
2018-07-27T08:13:26.658Z,6.00
2018-07-27T08:14:26.654Z,10.60
2018-07-27T08:15:26.639Z,7.50
2018-07-27T08:16:26.656Z,24.10
2018-07-27T08:17:26.642Z,10.50
2018-07-27T08:18:26.612Z,8.50
2018-07-27T08:19:26.612Z,5.40
2018-07-27T08:20:26.594Z,5.70
2018-07-27T08:21:26.574Z,6.20
2018-07-27T08:22:26.586Z,5.90
2018-07-27T08:23:26.556Z,4.60
2018-07-27T08:24:26.579Z,9.20
2018-07-27T08:25:26.537Z,8.00
2018-07-27T08:26:26.529Z,6.90
2018-07-27T08:27:26.542Z,8.70
2018-07-27T08:28:26.506Z,6.40
2018-07-27T08:29:26.490Z,4.90
2018-07-27T08:30:26.502Z,8.10
2018-07-27T08:31:26.476Z,5.70
2018-07-27T08:32:26.467Z,5.40
2018-07-27T08:33:26.442Z,5.70
2018-07-27T08:34:26.438Z,7.50
2018-07-27T08:35:26.422Z,5.60
2018-07-27T08:36:26.437Z,6.00
2018-07-27T08:37:26.427Z,6.80
2018-07-27T08:38:26.388Z,9.40
2018-07-27T08:39:26.383Z,6.80
2018-07-27T08:40:26.376Z,5.60
2018-07-27T08:41:26.369Z,6.00
2018-07-27T08:42:26.393Z,6.00
2018-07-27T08:43:26.341Z,9.10
2018-07-27T08:44:26.329Z,7.20
2018-07-27T08:45:26.314Z,8.60
2018-07-27T08:46:26.307Z,6.70
2018-07-27T08:47:26.328Z,8.90
2018-07-27T08:48:26.299Z,9.00
2018-07-27T08:49:26.273Z,8.40
2018-07-27T08:50:26.278Z,6.80
2018-07-27T08:51:26.272Z,12.80
2018-07-27T08:52:26.252Z,6.50
2018-07-27T08:53:26.247Z,10.40
2018-07-27T08:54:26.267Z,7.90
2018-07-27T08:55:26.211Z,5.70
2018-07-27T08:56:26.266Z,5.80
2018-07-27T08:57:26.221Z,8.90
2018-07-27T08:58:26.181Z,5.90
2018-07-27T08:59:26.167Z,5.00
2018-07-27T09:00:26.176Z,5.50
2018-07-27T09:01:26.138Z,13.30
2018-07-27T09:02:26.154Z,5.60
2018-07-27T09:03:26.130Z,9.60
2018-07-27T09:04:26.115Z,4.50
2018-07-27T09:05:26.109Z,4.30
2018-07-27T09:06:26.108Z,5.30
2018-07-27T09:07:26.089Z,4.40
2018-07-27T09:08:26.070Z,5.20
2018-07-27T09:09:26.085Z,7.30
2018-07-27T09:10:26.056Z,5.80
2018-07-27T09:11:26.039Z,6.40
2018-07-27T09:12:26.073Z,4.90
2018-07-27T09:13:26.016Z,4.40
2018-07-27T09:14:25.998Z,6.80
2018-07-27T09:15:26.000Z,4.60
2018-07-27T09:16:25.974Z,6.90
2018-07-27T09:17:26.049Z,9.20
2018-07-27T09:18:25.968Z,6.90
2018-07-27T09:19:25.938Z,15.10
2018-07-27T09:20:25.935Z,6.10
2018-07-27T09:21:25.924Z,10.90
2018-07-27T09:22:25.940Z,8.40
2018-07-27T09:23:25.898Z,11.50
2018-07-27T09:24:26.050Z,11.70
2018-07-27T09:25:26.126Z,8.40
2018-07-27T09:26:25.866Z,8.30
2018-07-27T09:27:25.863Z,4.90
2018-07-27T09:28:25.840Z,5.40
2018-07-27T09:29:25.831Z,5.50
2018-07-27T09:30:25.846Z,6.20
2018-07-27T09:31:25.809Z,6.20
2018-07-27T09:32:25.825Z,5.50
2018-07-27T09:33:25.784Z,5.20
2018-07-27T09:34:25.775Z,4.60
2018-07-27T09:35:25.794Z,8.10
2018-07-27T09:36:25.786Z,5.60
2018-07-27T09:37:25.772Z,5.30
2018-07-27T09:38:25.726Z,14.20
2018-07-27T09:39:25.721Z,7.40
2018-07-27T09:40:25.725Z,5.20
2018-07-27T09:41:25.693Z,5.80
2018-07-27T09:42:25.704Z,4.40
2018-07-27T09:43:25.682Z,7.40
2018-07-27T09:44:25.672Z,6.70
2018-07-27T09:45:25.657Z,8.30
2018-07-27T09:46:25.666Z,4.60
2018-07-27T09:47:25.629Z,7.10
2018-07-27T09:48:25.662Z,7.50
2018-07-27T09:49:25.611Z,8.10
2018-07-27T09:50:25.596Z,6.50
2018-07-27T09:51:25.579Z,18.50
2018-07-27T09:52:25.575Z,5.20
2018-07-27T09:53:25.565Z,20.00
2018-07-27T09:54:25.613Z,7.10
2018-07-27T09:55:25.540Z,6.60
2018-07-27T09:56:25.533Z,4.50
2018-07-27T09:57:25.596Z,14.60
2018-07-27T09:58:25.512Z,14.40
2018-07-27T09:59:25.522Z,11.20
2018-07-27T10:00:25.496Z,8.50
2018-07-27T10:01:25.473Z,9.50
2018-07-27T10:02:25.460Z,9.50
2018-07-27T10:03:25.449Z,5.00
2018-07-27T10:04:25.444Z,10.70
2018-07-27T10:05:25.461Z,23.30
2018-07-27T10:06:25.435Z,6.00
2018-07-27T10:07:25.408Z,7.80
2018-07-27T10:08:25.393Z,7.50
2018-07-27T10:09:25.382Z,10.60
2018-07-27T10:10:25.362Z,6.70
2018-07-27T10:11:25.370Z,6.00
2018-07-27T10:12:25.372Z,6.00
2018-07-27T10:13:25.333Z,5.50
2018-07-27T10:14:25.326Z,9.30
2018-07-27T10:15:25.316Z,5.50
2018-07-27T10:16:25.308Z,4.70
2018-07-27T10:17:25.294Z,9.50
2018-07-27T10:18:25.338Z,6.50
2018-07-27T10:19:25.269Z,5.60
2018-07-27T10:20:25.257Z,4.50
2018-07-27T10:21:25.255Z,5.70
2018-07-27T10:22:25.230Z,4.90
2018-07-27T10:23:25.217Z,10.30
2018-07-27T10:24:25.228Z,7.00
2018-07-27T10:25:25.203Z,6.10
2018-07-27T10:26:25.218Z,4.50
2018-07-27T10:27:25.180Z,9.80
2018-07-27T10:28:25.169Z,5.20
2018-07-27T10:29:25.154Z,4.50
2018-07-27T10:30:25.175Z,6.50
2018-07-27T10:31:25.131Z,6.00
2018-07-27T10:32:25.171Z,4.80
2018-07-27T10:33:25.113Z,5.40
2018-07-27T10:34:25.098Z,7.00
2018-07-27T10:35:25.093Z,5.80
2018-07-27T10:36:25.112Z,7.40
2018-07-27T10:37:25.075Z,8.30
2018-07-27T10:38:25.069Z,6.30
2018-07-27T10:39:25.043Z,5.40
2018-07-27T10:40:25.037Z,5.90
2018-07-27T10:41:25.026Z,7.70
2018-07-27T10:42:25.025Z,5.60
2018-07-27T10:43:25.011Z,19.50
2018-07-27T10:44:24.993Z,6.70
2018-07-27T10:45:24.981Z,6.90
2018-07-27T10:46:24.976Z,4.60
2018-07-27T10:47:24.967Z,6.50
2018-07-27T10:48:25.010Z,6.10
2018-07-27T10:49:24.939Z,5.20
2018-07-27T10:50:24.934Z,5.30
2018-07-27T10:51:24.920Z,5.80
2018-07-27T10:52:24.911Z,9.60
2018-07-27T10:53:24.910Z,5.10
2018-07-27T10:54:24.902Z,4.70
2018-07-27T10:55:24.920Z,10.20
2018-07-27T10:56:24.868Z,5.60
2018-07-27T10:57:24.866Z,7.90
2018-07-27T10:58:24.850Z,10.20
2018-07-27T10:59:24.827Z,5.50
2018-07-27T11:00:24.840Z,9.30
2018-07-27T11:01:24.815Z,4.60
2018-07-27T11:02:24.840Z,7.30
2018-07-27T11:03:24.802Z,9.40
2018-07-27T11:04:24.775Z,15.40
2018-07-27T11:05:24.769Z,5.00
2018-07-27T11:06:24.774Z,7.80
2018-07-27T11:07:24.743Z,8.10
2018-07-27T11:08:24.745Z,5.60
2018-07-27T11:09:24.725Z,6.30
2018-07-27T11:10:24.708Z,10.20
2018-07-27T11:11:24.703Z,6.50
2018-07-27T11:12:24.712Z,5.90
2018-07-27T11:13:24.692Z,5.40
2018-07-27T11:14:24.673Z,6.20
2018-07-27T11:15:24.658Z,4.70
2018-07-27T11:16:24.654Z,5.60
2018-07-27T11:17:24.718Z,6.80
2018-07-27T11:18:24.677Z,5.50
2018-07-27T11:19:24.615Z,4.90
2018-07-27T11:20:24.606Z,6.10
2018-07-27T11:21:24.601Z,5.10
2018-07-27T11:22:24.588Z,6.30
2018-07-27T11:23:24.575Z,4.80
2018-07-27T11:24:24.604Z,6.70
2018-07-27T11:25:24.550Z,5.80
2018-07-27T11:26:24.543Z,4.70
2018-07-27T11:27:24.536Z,4.90
2018-07-27T11:28:24.523Z,5.00
2018-07-27T11:29:24.515Z,6.90
2018-07-27T11:30:24.556Z,5.40
2018-07-27T11:31:24.485Z,6.00
2018-07-27T11:32:24.476Z,6.10
2018-07-27T11:33:24.466Z,5.10
2018-07-27T11:34:24.456Z,6.70
2018-07-27T11:35:24.447Z,7.60
2018-07-27T11:36:24.491Z,7.30
2018-07-27T11:37:24.487Z,7.60
2018-07-27T11:38:24.414Z,8.00
2018-07-27T11:39:24.400Z,10.00
2018-07-27T11:40:24.387Z,10.10
2018-07-27T11:41:24.418Z,10.90
2018-07-27T11:42:24.402Z,8.00
2018-07-27T11:43:24.358Z,7.30
2018-07-27T11:44:24.346Z,5.20
2018-07-27T11:45:24.340Z,7.80
2018-07-27T11:46:24.332Z,12.10
2018-07-27T11:47:24.323Z,14.00
2018-07-27T11:48:24.321Z,12.40
2018-07-27T11:49:24.315Z,12.40
2018-07-27T11:50:24.285Z,8.00
2018-07-27T11:51:24.276Z,6.00
2018-07-27T11:52:24.281Z,8.30
2018-07-27T11:53:24.248Z,25.20
2018-07-27T11:54:24.263Z,5.40
2018-07-27T11:55:24.231Z,8.70
2018-07-27T11:56:24.216Z,8.80
2018-07-27T11:57:24.225Z,13.00
2018-07-27T11:58:24.192Z,10.20
2018-07-27T11:59:24.186Z,10.00
2018-07-27T12:00:24.249Z,5.90
2018-07-27T12:01:24.168Z,7.10
2018-07-27T12:02:24.191Z,8.60
2018-07-27T12:03:24.142Z,9.50
2018-07-27T12:04:24.136Z,8.50
2018-07-27T12:05:24.128Z,8.50
2018-07-27T12:06:24.126Z,7.10
2018-07-27T12:07:24.105Z,6.00
2018-07-27T12:08:24.104Z,10.20
2018-07-27T12:09:24.075Z,6.40
2018-07-27T12:10:24.074Z,7.20
2018-07-27T12:11:24.076Z,5.80
2018-07-27T12:12:24.039Z,10.00
2018-07-27T12:13:24.078Z,7.10
2018-07-27T12:14:24.231Z,5.60
2018-07-27T12:15:24.017Z,12.20
2018-07-27T12:16:24.006Z,5.90
2018-07-27T12:17:24.005Z,5.50
2018-07-27T12:18:23.990Z,6.30
2018-07-27T12:19:23.987Z,5.30
2018-07-27T12:20:23.967Z,8.60
2018-07-27T12:21:24.081Z,7.10
2018-07-27T12:22:23.941Z,6.10
2018-07-27T12:23:23.944Z,4.80
2018-07-27T12:24:23.984Z,4.80
2018-07-27T12:25:23.902Z,5.40
2018-07-27T12:26:23.896Z,5.70
2018-07-27T12:27:23.885Z,8.40
2018-07-27T12:28:23.875Z,6.90
2018-07-27T12:29:23.879Z,5.40
2018-07-27T12:30:23.862Z,5.70
2018-07-27T12:31:23.840Z,6.40
2018-07-27T12:32:23.866Z,9.50
2018-07-27T12:33:23.822Z,10.70
2018-07-27T12:34:23.811Z,5.40
2018-07-27T12:35:23.832Z,20.50
2018-07-27T12:36:24.307Z,6.80
2018-07-27T12:37:23.779Z,11.90
2018-07-27T12:38:23.776Z,8.30
2018-07-27T12:39:23.758Z,6.70
2018-07-27T12:40:23.790Z,5.20
2018-07-27T12:41:23.745Z,5.60
2018-07-27T12:42:23.726Z,6.50
2018-07-27T12:43:23.718Z,10.40
2018-07-27T12:44:23.700Z,12.10
2018-07-27T12:45:23.694Z,6.30
2018-07-27T12:46:23.713Z,6.40
2018-07-27T12:47:23.676Z,5.30
2018-07-27T12:48:23.663Z,5.40
2018-07-27T12:49:23.652Z,5.90
2018-07-27T12:50:24.310Z,8.40
2018-07-27T12:51:23.680Z,12.50
2018-07-27T12:52:23.616Z,21.80
2018-07-27T12:53:23.614Z,7.30
2018-07-27T12:54:23.600Z,7.70
2018-07-27T12:55:23.591Z,8.80
2018-07-27T12:56:23.579Z,9.40
2018-07-27T12:57:23.597Z,12.10
2018-07-27T12:58:23.561Z,5.20
2018-07-27T12:59:23.546Z,6.60
2018-07-27T13:00:23.529Z,9.20
2018-07-27T13:01:23.521Z,10.30
2018-07-27T13:02:23.531Z,6.00
2018-07-27T13:03:23.523Z,5.80
2018-07-27T13:04:23.490Z,5.40
2018-07-27T13:05:23.499Z,5.10
2018-07-27T13:06:23.470Z,5.60